createdAt,value
2019-03-28T00:00:37.040Z,14.79
2019-03-28T00:03:06.426Z,14.57
2019-03-28T00:05:35.608Z,14.83
2019-03-28T00:08:05.066Z,14.68
2019-03-28T00:10:35.256Z,14.88
2019-03-28T00:13:04.700Z,14.79
2019-03-28T00:15:34.518Z,15.20
2019-03-28T00:18:03.890Z,14.84
2019-03-28T00:20:33.325Z,15.07
2019-03-28T00:23:08.503Z,15.04
2019-03-28T00:25:38.200Z,15.02
2019-03-28T00:28:07.362Z,15.09
2019-03-28T00:30:36.577Z,14.96
2019-03-28T00:33:05.691Z,14.97
2019-03-28T00:35:34.917Z,14.98
2019-03-28T00:38:04.090Z,14.94
2019-03-28T00:40:33.502Z,14.89
2019-03-28T00:43:02.654Z,15.18
2019-03-28T00:45:32.049Z,15.12
2019-03-28T00:48:01.325Z,14.76
2019-03-28T00:50:32.943Z,14.93
2019-03-28T00:53:01.651Z,15.11
2019-03-28T00:55:30.737Z,14.78
2019-03-28T00:57:59.888Z,14.41
2019-03-28T01:00:29.027Z,14.83
2019-03-28T01:02:58.432Z,14.80
2019-03-28T01:05:27.573Z,14.38
2019-03-28T01:07:57.412Z,14.46
2019-03-28T01:10:26.546Z,14.85
2019-03-28T01:12:57.944Z,14.53
2019-03-28T01:15:27.307Z,14.91
2019-03-28T01:17:56.711Z,14.94
2019-03-28T01:20:26.292Z,14.80
2019-03-28T01:22:56.213Z,14.95
2019-03-28T01:25:25.417Z,14.26
2019-03-28T01:27:55.058Z,14.33
2019-03-28T01:30:24.213Z,14.54
2019-03-28T01:32:53.491Z,14.55
2019-03-28T01:35:23.219Z,14.42
2019-03-28T01:37:54.517Z,14.34
2019-03-28T01:40:23.890Z,14.80
2019-03-28T01:42:53.044Z,14.77
2019-03-28T01:45:22.327Z,14.78
2019-03-28T01:47:51.476Z,15.04
2019-03-28T01:50:20.648Z,15.23
2019-03-28T01:52:49.764Z,15.25
2019-03-28T01:55:18.892Z,15.27
2019-03-28T01:57:48.048Z,15.04
2019-03-28T02:00:17.546Z,14.92
2019-03-28T02:02:46.953Z,14.63
2019-03-28T02:05:16.107Z,14.41
2019-03-28T02:07:45.245Z,14.25
2019-03-28T02:10:14.471Z,14.42
2019-03-28T02:12:43.875Z,14.78
2019-03-28T02:15:13.204Z,14.59
2019-03-28T02:17:42.574Z,14.78
2019-03-28T02:20:12.008Z,14.57
2019-03-28T02:22:41.447Z,14.21
2019-03-28T02:25:11.069Z,14.51
2019-03-28T02:27:40.214Z,14.23
2019-03-28T02:30:09.625Z,14.59
2019-03-28T02:32:38.862Z,14.46
2019-03-28T02:35:08.669Z,14.68
2019-03-28T02:37:38.032Z,14.94
2019-03-28T02:40:07.790Z,14.65
2019-03-28T02:42:36.889Z,14.64
2019-03-28T02:45:06.693Z,14.48
2019-03-28T02:47:36.172Z,14.57
2019-03-28T02:50:05.751Z,14.89
2019-03-28T02:52:34.894Z,14.42
2019-03-28T02:55:04.090Z,14.23
2019-03-28T02:57:40.820Z,14.45
2019-03-28T03:00:04.518Z,14.28
2019-03-28T03:02:33.639Z,14.54
2019-03-28T03:05:02.788Z,14.54
2019-03-28T03:07:31.931Z,14.54
2019-03-28T03:10:01.100Z,14.68
2019-03-28T03:12:30.228Z,14.40
2019-03-28T03:14:59.597Z,14.28
2019-03-28T03:17:30.786Z,14.11
2019-03-28T03:19:59.932Z,13.57
2019-03-28T03:22:29.066Z,14.12
2019-03-28T03:24:58.460Z,14.39
2019-03-28T03:27:27.743Z,14.26
2019-03-28T03:29:57.075Z,14.14
2019-03-28T03:32:26.237Z,13.78
2019-03-28T03:34:55.369Z,13.98
2019-03-28T03:37:24.489Z,13.87
2019-03-28T03:39:53.646Z,14.09
2019-03-28T03:42:22.855Z,14.58
2019-03-28T03:44:52.080Z,14.47
2019-03-28T03:47:21.204Z,14.63
2019-03-28T03:49:50.344Z,14.39
2019-03-28T03:52:19.572Z,14.39
2019-03-28T03:54:48.720Z,14.35
2019-03-28T03:57:17.888Z,14.51
2019-03-28T03:59:47.037Z,14.12
2019-03-28T04:02:16.196Z,14.46
2019-03-28T04:04:45.332Z,14.41
2019-03-28T04:07:14.530Z,14.40
2019-03-28T04:09:43.647Z,14.72
2019-03-28T04:12:12.781Z,14.70
2019-03-28T04:14:41.916Z,14.67
2019-03-28T04:17:11.145Z,14.69
2019-03-28T04:19:40.568Z,14.66
2019-03-28T04:22:10.110Z,15.01
2019-03-28T04:24:39.616Z,15.13
2019-03-28T04:27:08.768Z,14.72
2019-03-28T04:29:37.920Z,14.85
2019-03-28T04:32:07.065Z,14.55
2019-03-28T04:34:36.294Z,14.56
2019-03-28T04:37:06.518Z,14.53
2019-03-28T04:39:35.718Z,14.92
2019-03-28T04:42:04.959Z,14.71
2019-03-28T04:44:34.093Z,14.80
2019-03-28T04:47:03.290Z,14.95
2019-03-28T04:49:32.647Z,15.18
2019-03-28T04:52:01.813Z,15.11
2019-03-28T04:54:31.274Z,14.54
2019-03-28T04:57:00.442Z,15.04
2019-03-28T04:59:29.819Z,15.01
2019-03-28T05:02:03.201Z,15.16
2019-03-28T05:04:29.902Z,15.22
2019-03-28T05:06:59.031Z,15.07
2019-03-28T05:09:28.268Z,15.44
2019-03-28T05:11:57.392Z,15.38
2019-03-28T05:14:26.784Z,15.25
2019-03-28T05:16:55.938Z,15.59
2019-03-28T05:19:25.341Z,15.56
2019-03-28T05:21:54.463Z,14.88
2019-03-28T05:24:25.473Z,14.85
2019-03-28T05:26:55.662Z,15.07
2019-03-28T05:29:24.792Z,15.23
2019-03-28T05:31:54.047Z,14.90
2019-03-28T05:34:23.186Z,15.18
2019-03-28T05:36:52.381Z,15.11
2019-03-28T05:39:21.501Z,14.96
2019-03-28T05:41:50.995Z,14.69
2019-03-28T05:44:20.221Z,15.14
2019-03-28T05:46:49.574Z,15.08
2019-03-28T05:49:18.795Z,15.12
2019-03-28T05:51:47.929Z,14.48
2019-03-28T05:54:17.139Z,14.81
2019-03-28T05:56:46.273Z,14.84
2019-03-28T05:59:15.676Z,15.14
2019-03-28T06:01:45.131Z,15.42
2019-03-28T06:04:14.276Z,15.13
2019-03-28T06:06:44.249Z,15.40
2019-03-28T06:09:13.444Z,15.46
2019-03-28T06:11:42.591Z,15.36
2019-03-28T06:14:11.733Z,15.77
2019-03-28T06:16:40.983Z,15.66
2019-03-28T06:19:10.131Z,15.55
2019-03-28T06:21:39.852Z,15.49
2019-03-28T06:24:09.112Z,15.85
2019-03-28T06:26:38.266Z,16.33
2019-03-28T06:29:08.744Z,15.59
2019-03-28T06:31:37.936Z,16.22
2019-03-28T06:34:07.079Z,17.01
2019-03-28T06:36:36.471Z,16.70
2019-03-28T06:39:06.741Z,16.70
2019-03-28T06:41:35.987Z,17.42
2019-03-28T06:44:05.163Z,18.34
2019-03-28T06:46:34.317Z,18.15
2019-03-28T06:49:07.198Z,17.75
2019-03-28T06:51:36.470Z,17.84
2019-03-28T06:54:05.791Z,18.39
2019-03-28T06:56:34.945Z,18.55
2019-03-28T06:59:04.175Z,18.34
2019-03-28T07:01:33.612Z,19.33
2019-03-28T07:04:03.068Z,19.10
2019-03-28T07:06:32.186Z,19.35
2019-03-28T07:09:01.358Z,19.02
2019-03-28T07:11:30.543Z,18.87
2019-03-28T07:13:59.731Z,19.76
2019-03-28T07:16:28.912Z,19.42
2019-03-28T07:18:58.054Z,19.81
2019-03-28T07:21:27.211Z,19.89
2019-03-28T07:23:56.606Z,19.54
2019-03-28T07:26:26.304Z,19.18
2019-03-28T07:28:55.591Z,19.18
2019-03-28T07:31:24.723Z,19.82
2019-03-28T07:33:54.373Z,19.10
2019-03-28T07:36:23.604Z,18.62
2019-03-28T07:38:52.729Z,18.95
2019-03-28T07:41:21.856Z,17.42
2019-03-28T07:43:50.982Z,18.12
2019-03-28T07:46:20.110Z,18.64
2019-03-28T07:48:49.490Z,20.07
2019-03-28T07:51:18.622Z,19.10
2019-03-28T07:53:47.744Z,18.89
2019-03-28T07:56:17.114Z,18.86
2019-03-28T07:58:46.247Z,18.79
2019-03-28T08:01:18.114Z,18.26
2019-03-28T08:03:46.709Z,18.36
2019-03-28T08:06:16.109Z,19.11
2019-03-28T08:08:45.264Z,18.78
2019-03-28T08:11:15.009Z,19.84
2019-03-28T08:13:44.148Z,18.55
2019-03-28T08:16:13.293Z,18.54
2019-03-28T08:18:42.417Z,17.75
2019-03-28T08:21:11.770Z,18.19
2019-03-28T08:23:40.980Z,18.35
2019-03-28T08:26:10.176Z,18.57
2019-03-28T08:28:39.315Z,17.94
2019-03-28T08:31:08.679Z,18.20
2019-03-28T08:33:38.845Z,17.98
2019-03-28T08:36:08.049Z,18.22
2019-03-28T08:38:38.715Z,17.25
2019-03-28T08:41:08.091Z,18.19
2019-03-28T08:43:37.924Z,18.09
2019-03-28T08:46:08.744Z,17.87
2019-03-28T08:48:38.552Z,17.94
2019-03-28T08:51:07.762Z,18.24
2019-03-28T08:53:36.899Z,19.13
2019-03-28T08:56:06.149Z,22.18
2019-03-28T08:58:37.958Z,22.16
2019-03-28T09:01:07.602Z,24.25
2019-03-28T09:03:36.773Z,24.51
2019-03-28T09:06:06.019Z,25.69
2019-03-28T09:08:35.430Z,25.77
2019-03-28T09:11:05.005Z,28.21
2019-03-28T09:13:34.893Z,27.12
2019-03-28T09:16:04.258Z,27.59
2019-03-28T09:18:33.401Z,26.47
2019-03-28T09:21:02.608Z,27.81
2019-03-28T09:23:31.765Z,28.77
2019-03-28T09:26:04.226Z,28.51
2019-03-28T09:28:31.828Z,28.76
2019-03-28T09:31:01.155Z,27.30
2019-03-28T09:33:30.350Z,27.71
2019-03-28T09:35:59.485Z,28.64
2019-03-28T09:38:28.688Z,25.29
2019-03-28T09:40:58.233Z,27.92
2019-03-28T09:43:27.362Z,29.18
2019-03-28T09:45:56.495Z,28.68
2019-03-28T09:48:25.636Z,29.52
2019-03-28T09:50:54.795Z,30.03
2019-03-28T09:53:23.916Z,28.28
2019-03-28T09:55:53.582Z,30.36
2019-03-28T09:58:22.721Z,30.17
2019-03-28T10:01:02.877Z,25.98
2019-03-28T10:03:23.979Z,25.75
2019-03-28T10:05:53.400Z,25.60
2019-03-28T10:08:22.490Z,25.95
2019-03-28T10:10:51.631Z,24.56
2019-03-28T10:13:20.782Z,22.87
2019-03-28T10:15:50.624Z,22.91
2019-03-28T10:18:20.480Z,23.74
2019-03-28T10:20:49.754Z,23.35
2019-03-28T10:23:18.938Z,22.58
2019-03-28T10:25:48.083Z,21.78
2019-03-28T10:28:17.232Z,21.92
2019-03-28T10:30:46.465Z,21.64
2019-03-28T10:33:15.807Z,21.25
2019-03-28T10:35:45.183Z,21.65
2019-03-28T10:38:14.550Z,21.16
2019-03-28T10:40:43.671Z,21.91
2019-03-28T10:43:12.825Z,20.28
2019-03-28T10:45:41.970Z,20.87
2019-03-28T10:48:11.142Z,20.02
2019-03-28T10:50:45.039Z,19.76
2019-03-28T10:53:11.143Z,20.42
2019-03-28T10:55:40.364Z,19.37
2019-03-28T10:59:23.661Z,17.89
2019-03-28T11:01:50.840Z,19.30
2019-03-28T11:04:20.314Z,19.54
2019-03-28T11:06:49.450Z,20.24
2019-03-28T11:09:18.611Z,19.89
2019-03-28T11:11:47.789Z,19.09
2019-03-28T11:14:16.957Z,19.22
2019-03-28T11:16:48.276Z,19.51
2019-03-28T11:19:17.657Z,18.89
2019-03-28T11:21:46.975Z,19.67
2019-03-28T11:24:16.197Z,19.81
2019-03-28T11:26:45.314Z,18.75
2019-03-28T11:29:14.941Z,19.69
2019-03-28T11:31:47.739Z,19.86
2019-03-28T11:34:15.195Z,19.70
2019-03-28T11:36:44.353Z,19.84
2019-03-28T11:39:13.552Z,19.65
2019-03-28T11:41:42.681Z,19.66
2019-03-28T11:44:12.771Z,19.35
2019-03-28T11:46:41.915Z,18.45
2019-03-28T11:49:12.032Z,17.77
2019-03-28T11:51:41.170Z,18.17
2019-03-28T11:54:11.025Z,18.56
2019-03-28T11:56:40.389Z,18.68
2019-03-28T11:59:09.538Z,18.84
2019-03-28T12:01:38.703Z,18.79
2019-03-28T12:04:08.438Z,18.91
2019-03-28T12:06:38.543Z,19.30
2019-03-28T12:09:08.212Z,19.94
2019-03-28T12:11:37.356Z,19.97
2019-03-28T12:14:06.829Z,19.40
2019-03-28T12:16:36.294Z,19.91
2019-03-28T12:19:17.754Z,19.60
2019-03-28T12:21:46.403Z,18.70
2019-03-28T12:24:16.260Z,19.64
2019-03-28T12:26:46.188Z,19.00
2019-03-28T12:29:16.110Z,19.23
2019-03-28T12:31:45.288Z,18.26
2019-03-28T12:34:14.439Z,18.94
2019-03-28T12:36:44.619Z,18.46
2019-03-28T12:39:15.612Z,18.37
2019-03-28T12:41:44.976Z,18.07
2019-03-28T12:44:14.401Z,18.69
2019-03-28T12:46:43.560Z,18.49
2019-03-28T12:49:12.684Z,18.96
2019-03-28T12:51:41.824Z,18.74
2019-03-28T12:54:11.207Z,18.93
2019-03-28T12:56:40.625Z,18.46
2019-03-28T12:59:10.014Z,18.41
2019-03-28T13:01:39.395Z,18.18
2019-03-28T13:04:08.536Z,17.42
2019-03-28T13:06:38.022Z,18.49
2019-03-28T13:09:09.946Z,18.80
2019-03-28T13:11:39.286Z,19.21
2019-03-28T13:14:08.911Z,19.42
2019-03-28T13:16:38.314Z,19.26
2019-03-28T13:19:07.437Z,19.35
2019-03-28T13:21:37.071Z,19.09
2019-03-28T13:24:07.796Z,19.58
2019-03-28T13:26:37.176Z,19.42
2019-03-28T13:29:06.337Z,18.73
2019-03-28T13:31:35.790Z,18.68
2019-03-28T13:34:04.934Z,17.77
2019-03-28T13:36:34.552Z,18.53
2019-03-28T13:39:04.132Z,18.93
2019-03-28T13:41:34.612Z,19.28
2019-03-28T13:44:03.747Z,18.46
2019-03-28T13:46:32.941Z,19.22
2019-03-28T13:49:02.084Z,19.21
2019-03-28T13:51:31.929Z,19.31
2019-03-28T13:54:01.091Z,18.91
2019-03-28T13:56:30.240Z,18.51
2019-03-28T13:58:59.451Z,19.31
2019-03-28T14:01:28.596Z,18.75
2019-03-28T14:03:58.669Z,18.86
2019-03-28T14:06:27.837Z,18.85
2019-03-28T14:08:56.962Z,18.26
2019-03-28T14:11:26.444Z,19.01
2019-03-28T14:13:55.573Z,18.75
2019-03-28T14:16:24.725Z,18.70
2019-03-28T14:18:54.140Z,18.94
2019-03-28T14:21:24.829Z,17.67
2019-03-28T14:23:54.322Z,18.08
2019-03-28T14:26:23.446Z,18.01
2019-03-28T14:28:52.592Z,18.64
2019-03-28T14:31:21.712Z,19.06
2019-03-28T14:33:50.875Z,18.98
2019-03-28T14:36:20.935Z,18.70
2019-03-28T14:38:50.141Z,18.06
2019-03-28T14:41:19.270Z,19.05
2019-03-28T14:43:48.895Z,18.76
2019-03-28T14:46:18.023Z,19.20
2019-03-28T14:48:47.864Z,18.77
2019-03-28T14:51:17.101Z,18.12
2019-03-28T14:53:46.325Z,17.49
2019-03-28T14:56:15.830Z,17.33
2019-03-28T14:58:46.162Z,18.16
2019-03-28T15:01:15.474Z,18.02
2019-03-28T15:03:45.627Z,17.30
2019-03-28T15:06:14.766Z,18.53
2019-03-28T15:08:43.899Z,19.02
2019-03-28T15:11:13.271Z,18.38
2019-03-28T15:13:42.629Z,18.40
2019-03-28T15:16:11.751Z,18.75
2019-03-28T15:18:41.242Z,19.06
2019-03-28T15:21:10.364Z,18.90
2019-03-28T15:23:39.532Z,18.29
2019-03-28T15:26:09.929Z,18.60
2019-03-28T15:28:39.077Z,18.93
2019-03-28T15:31:08.442Z,18.37
2019-03-28T15:33:39.930Z,17.34
2019-03-28T15:36:09.007Z,17.89
2019-03-28T15:38:39.233Z,17.75
2019-03-28T15:41:09.671Z,17.66
2019-03-28T15:43:39.345Z,17.85
2019-03-28T15:46:08.567Z,18.02
2019-03-28T15:48:38.394Z,17.76
2019-03-28T15:51:07.519Z,17.51
2019-03-28T15:53:36.733Z,18.59
2019-03-28T15:56:06.682Z,18.88
2019-03-28T15:58:36.799Z,18.89
2019-03-28T16:01:06.078Z,19.07
2019-03-28T16:03:35.447Z,19.52
2019-03-28T16:06:04.923Z,18.94
2019-03-28T16:08:34.071Z,18.79
2019-03-28T16:11:03.250Z,18.83
2019-03-28T16:13:32.405Z,18.29
2019-03-28T16:16:02.255Z,18.80
2019-03-28T16:18:31.403Z,18.58
2019-03-28T16:21:00.796Z,17.84
2019-03-28T16:23:29.954Z,17.90
2019-03-28T16:25:59.089Z,18.27
2019-03-28T16:28:28.446Z,17.81
2019-03-28T16:30:57.538Z,17.78
2019-03-28T16:33:26.691Z,17.89
2019-03-28T16:35:56.054Z,17.15
2019-03-28T16:38:25.195Z,17.12
2019-03-28T16:40:54.329Z,18.11
2019-03-28T16:43:25.812Z,17.94
2019-03-28T16:45:54.595Z,18.68
2019-03-28T16:48:23.734Z,18.46
2019-03-28T16:50:52.896Z,18.32
2019-03-28T16:53:22.267Z,18.31
2019-03-28T16:55:51.390Z,17.84
2019-03-28T16:58:20.792Z,17.78
2019-03-28T17:00:50.166Z,18.17
2019-03-28T17:03:19.567Z,18.47
2019-03-28T17:05:48.696Z,18.04
2019-03-28T17:08:18.027Z,18.22
2019-03-28T17:10:52.210Z,17.87
2019-03-28T17:13:21.411Z,17.84
2019-03-28T17:15:51.169Z,17.49
2019-03-28T17:18:21.475Z,18.31
2019-03-28T17:20:50.701Z,18.18
2019-03-28T17:23:20.122Z,18.29
2019-03-28T17:25:50.249Z,18.60
2019-03-28T17:28:19.565Z,18.20
2019-03-28T17:30:48.679Z,17.87
2019-03-28T17:33:18.162Z,18.33
2019-03-28T17:35:47.477Z,17.67
2019-03-28T17:38:17.072Z,17.72
2019-03-28T17:40:46.216Z,17.78
2019-03-28T17:43:15.933Z,18.08
2019-03-28T17:45:45.269Z,18.31
2019-03-28T17:48:14.438Z,17.35
2019-03-28T17:50:43.986Z,17.89
2019-03-28T17:53:13.235Z,18.24
2019-03-28T17:55:42.607Z,18.06
2019-03-28T17:58:11.913Z,18.24
2019-03-28T18:00:42.527Z,18.23
2019-03-28T18:03:12.350Z,17.48
2019-03-28T18:05:42.516Z,18.14
2019-03-28T18:08:12.034Z,16.94
2019-03-28T18:10:41.171Z,16.36
2019-03-28T18:13:11.248Z,18.10
2019-03-28T18:15:41.930Z,17.95
2019-03-28T18:18:12.004Z,18.09
2019-03-28T18:20:41.950Z,18.55
2019-03-28T18:23:11.094Z,18.02
2019-03-28T18:25:40.252Z,18.29
2019-03-28T18:28:09.972Z,18.41
2019-03-28T18:30:39.770Z,17.96
2019-03-28T18:33:09.209Z,18.40
2019-03-28T18:35:38.557Z,18.38
2019-03-28T18:38:07.689Z,18.05
2019-03-28T18:43:12.160Z,18.26
2019-03-28T18:45:41.430Z,18.61
2019-03-28T18:48:11.353Z,18.27
2019-03-28T18:50:41.299Z,18.19
2019-03-28T18:53:10.823Z,18.33
2019-03-28T18:55:40.015Z,18.32
2019-03-28T18:58:09.146Z,17.87
2019-03-28T19:00:38.314Z,18.52
2019-03-28T19:03:08.029Z,18.58
2019-03-28T19:05:37.213Z,18.08
2019-03-28T19:08:06.366Z,17.55
2019-03-28T19:10:37.739Z,17.98
2019-03-28T19:13:07.216Z,18.29
2019-03-28T19:15:37.066Z,18.08
2019-03-28T19:18:07.168Z,18.34
2019-03-28T19:20:36.659Z,18.52
2019-03-28T19:23:07.427Z,18.48
2019-03-28T19:25:36.734Z,18.34
2019-03-28T19:28:07.591Z,17.77
2019-03-28T19:30:36.921Z,17.51
2019-03-28T19:33:06.970Z,17.98
2019-03-28T19:35:37.369Z,18.40
2019-03-28T19:38:09.092Z,17.59
2019-03-28T19:40:37.661Z,17.94
2019-03-28T19:43:19.842Z,16.72
2019-03-28T19:45:38.431Z,17.34
2019-03-28T19:48:08.213Z,16.55
2019-03-28T19:50:37.746Z,17.24
2019-03-28T19:53:07.134Z,16.77
2019-03-28T19:55:39.595Z,17.25
2019-03-28T19:58:07.269Z,17.77
2019-03-28T20:00:36.398Z,18.28
2019-03-28T20:03:06.441Z,18.20
2019-03-28T20:05:46.856Z,18.13
2019-03-28T20:08:15.442Z,17.98
2019-03-28T20:10:37.911Z,18.57
2019-03-28T20:13:07.460Z,17.64
2019-03-28T20:15:36.638Z,17.37
2019-03-28T20:18:05.860Z,17.70
2019-03-28T20:20:35.035Z,17.53
2019-03-28T20:23:04.248Z,16.95
2019-03-28T20:25:34.353Z,17.74
2019-03-28T20:28:03.677Z,16.65
2019-03-28T20:30:32.898Z,17.20
2019-03-28T20:33:02.293Z,17.31
2019-03-28T20:35:31.681Z,17.64
2019-03-28T20:38:00.924Z,18.02
2019-03-28T20:40:30.139Z,17.36
2019-03-28T20:42:59.273Z,17.36
2019-03-28T20:45:28.708Z,17.66
2019-03-28T20:47:57.848Z,16.89
2019-03-28T20:50:28.051Z,17.11
2019-03-28T20:52:57.929Z,17.62
2019-03-28T20:55:27.039Z,17.99
2019-03-28T20:57:56.192Z,16.54
2019-03-28T21:00:39.994Z,16.13
2019-03-28T21:03:09.692Z,17.22
2019-03-28T21:05:39.853Z,16.90
2019-03-28T21:08:09.264Z,16.95
2019-03-28T21:10:38.384Z,17.56
2019-03-28T21:13:07.537Z,16.93
2019-03-28T21:15:36.794Z,17.57
2019-03-28T21:18:05.919Z,16.93
2019-03-28T21:20:36.183Z,16.16
2019-03-28T21:23:06.036Z,16.55
2019-03-28T21:25:35.243Z,16.65
2019-03-28T21:28:04.772Z,16.78
2019-03-28T21:30:46.541Z,17.16
2019-03-28T21:33:04.860Z,17.24
2019-03-28T21:35:34.011Z,17.24
2019-03-28T21:38:03.124Z,16.67
2019-03-28T21:40:32.437Z,16.79
2019-03-28T21:43:01.585Z,17.33
2019-03-28T21:45:30.809Z,17.12
2019-03-28T21:47:59.962Z,17.40
2019-03-28T21:50:30.043Z,17.07
2019-03-28T21:52:59.167Z,17.60
2019-03-28T21:55:28.584Z,16.04
2019-03-28T21:57:57.982Z,16.80
2019-03-28T22:00:27.147Z,17.54
2019-03-28T22:02:56.534Z,17.13
2019-03-28T22:05:28.684Z,17.72
2019-03-28T22:07:56.773Z,17.81
2019-03-28T22:10:26.606Z,17.27
2019-03-28T22:12:56.220Z,16.81
2019-03-28T22:15:26.254Z,16.69
2019-03-28T22:17:56.786Z,14.66
2019-03-28T22:20:25.922Z,15.78
2019-03-28T22:22:55.388Z,16.71
2019-03-28T22:25:24.494Z,16.71
2019-03-28T22:27:54.102Z,17.32
2019-03-28T22:30:23.238Z,16.53
2019-03-28T22:32:52.405Z,17.16
2019-03-28T22:35:21.784Z,17.16
2019-03-28T22:37:50.934Z,17.61
2019-03-28T22:40:20.137Z,17.88
2019-03-28T22:42:49.290Z,17.49
2019-03-28T22:45:19.009Z,17.30
2019-03-28T22:47:48.144Z,17.41
2019-03-28T22:50:17.372Z,17.33
2019-03-28T22:52:46.773Z,17.57
2019-03-28T22:55:16.278Z,17.88
2019-03-28T22:57:45.414Z,17.00
2019-03-28T23:00:15.243Z,16.31
2019-03-28T23:02:44.659Z,16.37
2019-03-28T23:05:14.512Z,17.26
2019-03-28T23:07:43.648Z,17.46
2019-03-28T23:10:12.892Z,17.03
2019-03-28T23:12:42.098Z,17.05
2019-03-28T23:15:12.151Z,17.14
2019-03-28T23:17:41.545Z,16.51
2019-03-28T23:20:11.102Z,17.37
2019-03-28T23:22:40.278Z,17.66
2019-03-28T23:25:10.808Z,17.67
2019-03-28T23:27:40.064Z,17.69
2019-03-28T23:30:09.679Z,17.69
2019-03-28T23:32:38.988Z,17.59
2019-03-28T23:35:09.121Z,17.94
2019-03-28T23:37:38.502Z,18.01
2019-03-28T23:40:08.508Z,17.81
2019-03-28T23:42:37.726Z,17.15
2019-03-28T23:45:10.774Z,17.82
2019-03-28T23:47:39.988Z,17.24
2019-03-28T23:50:09.306Z,17.54
2019-03-28T23:52:38.564Z,16.99
2019-03-28T23:55:07.871Z,16.98
2019-03-28T23:57:37.246Z,17.42
